sensor_id;sensor_type;location;lat;lon;timestamp;P1;durP1;ratioP1;P2;durP2;ratioP2
52272;SDS011;38227;50.942;4.016;2023-05-14T00:00:02;56.95;;;25.33;;
52272;SDS011;38227;50.942;4.016;2023-05-14T00:02:33;61.63;;;26.92;;
52272;SDS011;38227;50.942;4.016;2023-05-14T00:05:10;60.53;;;25.80;;
52272;SDS011;38227;50.942;4.016;2023-05-14T00:07:39;55.78;;;23.33;;
52272;SDS011;38227;50.942;4.016;2023-05-14T00:10:18;57.83;;;24.40;;
52272;SDS011;38227;50.942;4.016;2023-05-14T00:12:50;61.45;;;24.37;;
52272;SDS011;38227;50.942;4.016;2023-05-14T00:15:20;60.20;;;25.67;;
52272;SDS011;38227;50.942;4.016;2023-05-14T00:17:59;58.42;;;25.80;;
52272;SDS011;38227;50.942;4.016;2023-05-14T00:20:36;66.62;;;25.77;;
52272;SDS011;38227;50.942;4.016;2023-05-14T00:23:06;69.68;;;29.25;;
52272;SDS011;38227;50.942;4.016;2023-05-14T00:25:36;68.35;;;27.98;;
52272;SDS011;38227;50.942;4.016;2023-05-14T00:28:06;70.68;;;28.83;;
52272;SDS011;38227;50.942;4.016;2023-05-14T00:30:37;71.65;;;29.40;;
52272;SDS011;38227;50.942;4.016;2023-05-14T00:33:07;75.00;;;30.62;;
52272;SDS011;38227;50.942;4.016;2023-05-14T00:35:38;72.37;;;31.60;;
52272;SDS011;38227;50.942;4.016;2023-05-14T00:38:06;64.75;;;28.10;;
52272;SDS011;38227;50.942;4.016;2023-05-14T00:40:36;67.93;;;29.17;;
52272;SDS011;38227;50.942;4.016;2023-05-14T00:43:20;70.70;;;27.77;;
52272;SDS011;38227;50.942;4.016;2023-05-14T00:45:50;61.33;;;26.40;;
52272;SDS011;38227;50.942;4.016;2023-05-14T00:48:19;67.20;;;27.65;;
52272;SDS011;38227;50.942;4.016;2023-05-14T00:50:50;56.55;;;25.25;;
52272;SDS011;38227;50.942;4.016;2023-05-14T00:53:27;67.57;;;25.67;;
52272;SDS011;38227;50.942;4.016;2023-05-14T00:55:58;60.33;;;25.95;;
52272;SDS011;38227;50.942;4.016;2023-05-14T00:58:29;63.97;;;25.98;;
52272;SDS011;38227;50.942;4.016;2023-05-14T01:00:58;60.33;;;24.63;;
52272;SDS011;38227;50.942;4.016;2023-05-14T01:03:30;64.35;;;23.87;;
52272;SDS011;38227;50.942;4.016;2023-05-14T01:06:17;59.40;;;25.83;;
52272;SDS011;38227;50.942;4.016;2023-05-14T01:09:09;60.65;;;25.35;;
52272;SDS011;38227;50.942;4.016;2023-05-14T01:15:14;56.35;;;24.87;;
52272;SDS011;38227;50.942;4.016;2023-05-14T01:17:53;56.63;;;24.10;;
52272;SDS011;38227;50.942;4.016;2023-05-14T01:20:25;54.55;;;22.33;;
52272;SDS011;38227;50.942;4.016;2023-05-14T01:22:55;59.15;;;23.85;;
52272;SDS011;38227;50.942;4.016;2023-05-14T01:25:32;59.22;;;24.10;;
52272;SDS011;38227;50.942;4.016;2023-05-14T01:28:19;51.88;;;22.67;;
52272;SDS011;38227;50.942;4.016;2023-05-14T01:31:00;53.63;;;22.83;;
52272;SDS011;38227;50.942;4.016;2023-05-14T01:33:35;55.95;;;23.85;;
52272;SDS011;38227;50.942;4.016;2023-05-14T01:36:14;55.90;;;24.02;;
52272;SDS011;38227;50.942;4.016;2023-05-14T01:38:42;53.03;;;22.27;;
52272;SDS011;38227;50.942;4.016;2023-05-14T01:41:12;54.95;;;21.67;;
52272;SDS011;38227;50.942;4.016;2023-05-14T01:43:42;46.42;;;20.10;;
52272;SDS011;38227;50.942;4.016;2023-05-14T01:46:16;41.85;;;19.92;;
52272;SDS011;38227;50.942;4.016;2023-05-14T01:48:49;48.17;;;20.33;;
52272;SDS011;38227;50.942;4.016;2023-05-14T01:51:18;52.65;;;22.83;;
52272;SDS011;38227;50.942;4.016;2023-05-14T01:53:55;57.67;;;24.75;;
52272;SDS011;38227;50.942;4.016;2023-05-14T01:56:24;59.58;;;25.27;;
52272;SDS011;38227;50.942;4.016;2023-05-14T01:58:55;54.97;;;23.62;;
52272;SDS011;38227;50.942;4.016;2023-05-14T02:01:25;59.88;;;24.35;;
52272;SDS011;38227;50.942;4.016;2023-05-14T02:03:56;64.43;;;25.08;;
52272;SDS011;38227;50.942;4.016;2023-05-14T02:06:25;71.78;;;26.98;;
52272;SDS011;38227;50.942;4.016;2023-05-14T02:08:58;62.50;;;26.25;;
52272;SDS011;38227;50.942;4.016;2023-05-14T02:11:28;63.53;;;26.62;;
52272;SDS011;38227;50.942;4.016;2023-05-14T02:13:57;71.60;;;27.60;;
52272;SDS011;38227;50.942;4.016;2023-05-14T02:16:28;65.20;;;27.02;;
52272;SDS011;38227;50.942;4.016;2023-05-14T02:18:59;58.97;;;25.70;;
52272;SDS011;38227;50.942;4.016;2023-05-14T02:21:28;53.17;;;23.02;;
52272;SDS011;38227;50.942;4.016;2023-05-14T02:24:06;47.85;;;22.08;;
52272;SDS011;38227;50.942;4.016;2023-05-14T02:26:36;48.70;;;20.65;;
52272;SDS011;38227;50.942;4.016;2023-05-14T02:29:12;45.97;;;20.12;;
52272;SDS011;38227;50.942;4.016;2023-05-14T02:31:42;39.67;;;18.48;;
52272;SDS011;38227;50.942;4.016;2023-05-14T02:34:14;43.17;;;19.25;;
52272;SDS011;38227;50.942;4.016;2023-05-14T02:36:45;44.72;;;19.58;;
52272;SDS011;38227;50.942;4.016;2023-05-14T02:39:16;35.47;;;17.67;;
52272;SDS011;38227;50.942;4.016;2023-05-14T02:41:46;43.47;;;19.73;;
52272;SDS011;38227;50.942;4.016;2023-05-14T02:44:22;38.15;;;18.90;;
52272;SDS011;38227;50.942;4.016;2023-05-14T02:46:52;37.75;;;18.20;;
52272;SDS011;38227;50.942;4.016;2023-05-14T02:49:29;39.78;;;18.85;;
52272;SDS011;38227;50.942;4.016;2023-05-14T02:52:00;42.80;;;18.65;;
52272;SDS011;38227;50.942;4.016;2023-05-14T02:54:31;37.78;;;17.23;;
52272;SDS011;38227;50.942;4.016;2023-05-14T02:57:01;34.40;;;16.62;;
52272;SDS011;38227;50.942;4.016;2023-05-14T02:59:38;34.45;;;16.92;;
52272;SDS011;38227;50.942;4.016;2023-05-14T03:02:06;38.47;;;16.95;;
52272;SDS011;38227;50.942;4.016;2023-05-14T03:04:36;37.17;;;15.98;;
52272;SDS011;38227;50.942;4.016;2023-05-14T03:07:07;34.17;;;16.15;;
52272;SDS011;38227;50.942;4.016;2023-05-14T03:09:44;35.35;;;16.40;;
52272;SDS011;38227;50.942;4.016;2023-05-14T03:12:27;37.22;;;17.42;;
52272;SDS011;38227;50.942;4.016;2023-05-14T03:15:06;42.08;;;17.73;;
52272;SDS011;38227;50.942;4.016;2023-05-14T03:17:41;35.00;;;15.85;;
52272;SDS011;38227;50.942;4.016;2023-05-14T03:20:21;35.13;;;16.20;;
52272;SDS011;38227;50.942;4.016;2023-05-14T03:23:00;37.45;;;16.62;;
52272;SDS011;38227;50.942;4.016;2023-05-14T03:25:46;32.42;;;14.43;;
52272;SDS011;38227;50.942;4.016;2023-05-14T03:28:18;33.97;;;16.20;;
52272;SDS011;38227;50.942;4.016;2023-05-14T03:30:50;33.38;;;15.45;;
52272;SDS011;38227;50.942;4.016;2023-05-14T03:33:19;31.58;;;15.93;;
52272;SDS011;38227;50.942;4.016;2023-05-14T03:35:50;32.65;;;15.35;;
52272;SDS011;38227;50.942;4.016;2023-05-14T03:38:19;28.40;;;13.82;;
52272;SDS011;38227;50.942;4.016;2023-05-14T03:40:49;33.20;;;15.23;;
52272;SDS011;38227;50.942;4.016;2023-05-14T03:43:20;32.13;;;14.52;;
52272;SDS011;38227;50.942;4.016;2023-05-14T03:45:50;34.05;;;15.65;;
52272;SDS011;38227;50.942;4.016;2023-05-14T03:48:27;33.80;;;14.73;;
52272;SDS011;38227;50.942;4.016;2023-05-14T03:50:56;35.72;;;16.37;;
52272;SDS011;38227;50.942;4.016;2023-05-14T03:53:26;39.85;;;16.30;;
52272;SDS011;38227;50.942;4.016;2023-05-14T03:55:57;32.90;;;16.33;;
52272;SDS011;38227;50.942;4.016;2023-05-14T03:58:25;43.10;;;20.25;;
52272;SDS011;38227;50.942;4.016;2023-05-14T04:00:55;48.45;;;20.50;;
52272;SDS011;38227;50.942;4.016;2023-05-14T04:03:32;53.83;;;22.05;;
52272;SDS011;38227;50.942;4.016;2023-05-14T04:06:03;48.97;;;20.90;;
52272;SDS011;38227;50.942;4.016;2023-05-14T04:08:31;49.30;;;21.02;;
52272;SDS011;38227;50.942;4.016;2023-05-14T04:11:01;46.53;;;19.67;;
52272;SDS011;38227;50.942;4.016;2023-05-14T04:13:37;51.10;;;20.55;;
52272;SDS011;38227;50.942;4.016;2023-05-14T04:16:05;52.05;;;21.37;;
52272;SDS011;38227;50.942;4.016;2023-05-14T04:18:36;49.25;;;22.37;;
52272;SDS011;38227;50.942;4.016;2023-05-14T04:21:15;54.17;;;21.65;;
52272;SDS011;38227;50.942;4.016;2023-05-14T04:23:46;48.05;;;20.42;;
52272;SDS011;38227;50.942;4.016;2023-05-14T04:26:16;53.25;;;21.17;;
52272;SDS011;38227;50.942;4.016;2023-05-14T04:28:46;50.53;;;20.73;;
52272;SDS011;38227;50.942;4.016;2023-05-14T04:31:16;51.08;;;20.45;;
52272;SDS011;38227;50.942;4.016;2023-05-14T04:33:47;46.37;;;19.70;;
52272;SDS011;38227;50.942;4.016;2023-05-14T04:36:17;44.45;;;20.37;;
52272;SDS011;38227;50.942;4.016;2023-05-14T04:38:49;52.62;;;21.45;;
52272;SDS011;38227;50.942;4.016;2023-05-14T04:41:19;46.42;;;20.05;;
52272;SDS011;38227;50.942;4.016;2023-05-14T04:43:57;46.85;;;20.00;;
52272;SDS011;38227;50.942;4.016;2023-05-14T04:46:26;49.70;;;20.05;;
52272;SDS011;38227;50.942;4.016;2023-05-14T04:48:55;46.25;;;19.98;;
52272;SDS011;38227;50.942;4.016;2023-05-14T04:51:26;41.72;;;17.45;;
52272;SDS011;38227;50.942;4.016;2023-05-14T04:53:56;40.10;;;17.65;;
52272;SDS011;38227;50.942;4.016;2023-05-14T04:56:33;41.78;;;17.48;;
52272;SDS011;38227;50.942;4.016;2023-05-14T04:59:01;39.42;;;17.60;;
52272;SDS011;38227;50.942;4.016;2023-05-14T05:01:31;39.25;;;17.67;;
52272;SDS011;38227;50.942;4.016;2023-05-14T05:04:02;39.55;;;17.62;;
52272;SDS011;38227;50.942;4.016;2023-05-14T05:06:32;38.22;;;18.17;;
52272;SDS011;38227;50.942;4.016;2023-05-14T05:09:02;44.72;;;19.05;;
52272;SDS011;38227;50.942;4.016;2023-05-14T05:11:31;41.05;;;18.02;;
52272;SDS011;38227;50.942;4.016;2023-05-14T05:14:00;41.45;;;17.73;;
52272;SDS011;38227;50.942;4.016;2023-05-14T05:16:31;45.45;;;19.67;;
52272;SDS011;38227;50.942;4.016;2023-05-14T05:19:01;46.67;;;18.40;;
52272;SDS011;38227;50.942;4.016;2023-05-14T05:21:32;42.47;;;17.98;;
52272;SDS011;38227;50.942;4.016;2023-05-14T05:24:00;46.33;;;19.33;;
52272;SDS011;38227;50.942;4.016;2023-05-14T05:26:29;45.75;;;18.90;;
52272;SDS011;38227;50.942;4.016;2023-05-14T05:29:01;50.05;;;20.83;;
52272;SDS011;38227;50.942;4.016;2023-05-14T05:31:32;52.55;;;21.75;;
52272;SDS011;38227;50.942;4.016;2023-05-14T05:34:03;63.15;;;24.55;;
52272;SDS011;38227;50.942;4.016;2023-05-14T05:36:33;67.00;;;24.37;;
52272;SDS011;38227;50.942;4.016;2023-05-14T05:39:04;70.55;;;26.52;;
52272;SDS011;38227;50.942;4.016;2023-05-14T05:41:32;71.93;;;26.35;;
52272;SDS011;38227;50.942;4.016;2023-05-14T05:44:03;70.93;;;25.52;;
52272;SDS011;38227;50.942;4.016;2023-05-14T05:46:33;76.25;;;28.60;;
52272;SDS011;38227;50.942;4.016;2023-05-14T05:49:02;74.35;;;27.08;;
52272;SDS011;38227;50.942;4.016;2023-05-14T05:51:34;75.07;;;26.87;;
52272;SDS011;38227;50.942;4.016;2023-05-14T05:54:04;74.18;;;26.55;;
52272;SDS011;38227;50.942;4.016;2023-05-14T05:56:41;75.25;;;26.52;;
52272;SDS011;38227;50.942;4.016;2023-05-14T05:59:11;71.72;;;25.85;;
52272;SDS011;38227;50.942;4.016;2023-05-14T06:01:47;74.97;;;27.60;;
52272;SDS011;38227;50.942;4.016;2023-05-14T06:04:17;69.30;;;26.05;;
52272;SDS011;38227;50.942;4.016;2023-05-14T06:06:49;70.40;;;25.95;;
52272;SDS011;38227;50.942;4.016;2023-05-14T06:09:19;64.35;;;24.92;;
52272;SDS011;38227;50.942;4.016;2023-05-14T06:11:55;62.83;;;24.17;;
52272;SDS011;38227;50.942;4.016;2023-05-14T06:14:25;62.58;;;23.50;;
52272;SDS011;38227;50.942;4.016;2023-05-14T06:16:56;61.58;;;23.10;;
52272;SDS011;38227;50.942;4.016;2023-05-14T06:19:25;55.65;;;23.75;;
52272;SDS011;38227;50.942;4.016;2023-05-14T06:21:56;57.62;;;21.45;;
52272;SDS011;38227;50.942;4.016;2023-05-14T06:24:26;51.20;;;20.30;;
52272;SDS011;38227;50.942;4.016;2023-05-14T06:27:03;61.05;;;22.30;;
52272;SDS011;38227;50.942;4.016;2023-05-14T06:29:32;52.05;;;20.83;;
52272;SDS011;38227;50.942;4.016;2023-05-14T06:32:09;59.40;;;21.62;;
52272;SDS011;38227;50.942;4.016;2023-05-14T06:34:41;60.20;;;23.42;;
52272;SDS011;38227;50.942;4.016;2023-05-14T06:37:11;58.03;;;23.33;;
52272;SDS011;38227;50.942;4.016;2023-05-14T06:39:50;59.08;;;22.70;;
52272;SDS011;38227;50.942;4.016;2023-05-14T06:42:20;49.95;;;20.33;;
52272;SDS011;38227;50.942;4.016;2023-05-14T06:44:50;47.17;;;19.42;;
52272;SDS011;38227;50.942;4.016;2023-05-14T06:47:21;45.88;;;18.65;;
52272;SDS011;38227;50.942;4.016;2023-05-14T06:49:51;38.30;;;17.58;;
52272;SDS011;38227;50.942;4.016;2023-05-14T06:52:28;39.80;;;17.15;;
52272;SDS011;38227;50.942;4.016;2023-05-14T06:54:58;36.80;;;17.23;;
52272;SDS011;38227;50.942;4.016;2023-05-14T06:57:29;41.15;;;17.75;;
52272;SDS011;38227;50.942;4.016;2023-05-14T06:59:59;44.42;;;18.80;;
52272;SDS011;38227;50.942;4.016;2023-05-14T07:02:32;42.85;;;17.52;;
52272;SDS011;38227;50.942;4.016;2023-05-14T07:04:59;43.17;;;16.98;;
52272;SDS011;38227;50.942;4.016;2023-05-14T07:07:29;33.72;;;16.10;;
52272;SDS011;38227;50.942;4.016;2023-05-14T07:10:01;33.88;;;15.05;;
52272;SDS011;38227;50.942;4.016;2023-05-14T07:12:31;37.03;;;15.48;;
52272;SDS011;38227;50.942;4.016;2023-05-14T07:15:02;35.22;;;15.13;;
52272;SDS011;38227;50.942;4.016;2023-05-14T07:17:33;35.55;;;15.23;;
52272;SDS011;38227;50.942;4.016;2023-05-14T07:20:04;30.67;;;14.77;;
52272;SDS011;38227;50.942;4.016;2023-05-14T07:22:39;28.67;;;14.95;;
52272;SDS011;38227;50.942;4.016;2023-05-14T07:25:11;32.30;;;14.73;;
52272;SDS011;38227;50.942;4.016;2023-05-14T07:27:40;33.97;;;15.98;;
52272;SDS011;38227;50.942;4.016;2023-05-14T07:30:12;31.50;;;14.52;;
52272;SDS011;38227;50.942;4.016;2023-05-14T07:32:42;31.25;;;14.13;;
52272;SDS011;38227;50.942;4.016;2023-05-14T07:35:18;31.17;;;15.75;;
52272;SDS011;38227;50.942;4.016;2023-05-14T07:37:49;28.12;;;14.75;;
52272;SDS011;38227;50.942;4.016;2023-05-14T07:40:20;28.08;;;13.90;;
52272;SDS011;38227;50.942;4.016;2023-05-14T07:42:50;29.45;;;14.13;;
52272;SDS011;38227;50.942;4.016;2023-05-14T07:45:18;28.08;;;13.68;;
52272;SDS011;38227;50.942;4.016;2023-05-14T07:47:47;30.20;;;14.32;;
52272;SDS011;38227;50.942;4.016;2023-05-14T07:50:18;28.15;;;14.38;;
52272;SDS011;38227;50.942;4.016;2023-05-14T07:52:47;27.65;;;14.93;;
52272;SDS011;38227;50.942;4.016;2023-05-14T07:55:15;29.87;;;14.90;;
52272;SDS011;38227;50.942;4.016;2023-05-14T07:57:45;24.67;;;13.68;;
52272;SDS011;38227;50.942;4.016;2023-05-14T08:00:17;23.17;;;13.30;;
52272;SDS011;38227;50.942;4.016;2023-05-14T08:02:46;26.67;;;13.75;;
52272;SDS011;38227;50.942;4.016;2023-05-14T08:05:24;26.92;;;13.48;;
52272;SDS011;38227;50.942;4.016;2023-05-14T08:07:54;27.10;;;14.13;;
52272;SDS011;38227;50.942;4.016;2023-05-14T08:10:25;26.73;;;13.85;;
52272;SDS011;38227;50.942;4.016;2023-05-14T08:13:03;29.87;;;14.57;;
52272;SDS011;38227;50.942;4.016;2023-05-14T08:15:42;27.95;;;14.18;;
52272;SDS011;38227;50.942;4.016;2023-05-14T08:18:20;27.02;;;13.98;;
52272;SDS011;38227;50.942;4.016;2023-05-14T08:21:07;24.08;;;14.07;;
52272;SDS011;38227;50.942;4.016;2023-05-14T08:23:41;27.62;;;14.18;;
52272;SDS011;38227;50.942;4.016;2023-05-14T08:26:09;26.60;;;14.52;;
52272;SDS011;38227;50.942;4.016;2023-05-14T08:28:38;23.62;;;12.90;;
52272;SDS011;38227;50.942;4.016;2023-05-14T08:31:09;23.00;;;13.02;;
52272;SDS011;38227;50.942;4.016;2023-05-14T08:33:39;21.35;;;12.20;;
52272;SDS011;38227;50.942;4.016;2023-05-14T08:36:17;22.98;;;12.37;;
52272;SDS011;38227;50.942;4.016;2023-05-14T08:38:55;22.77;;;12.82;;
52272;SDS011;38227;50.942;4.016;2023-05-14T08:41:34;26.12;;;13.18;;
52272;SDS011;38227;50.942;4.016;2023-05-14T08:44:14;25.88;;;13.23;;
52272;SDS011;38227;50.942;4.016;2023-05-14T08:46:45;30.27;;;14.38;;
52272;SDS011;38227;50.942;4.016;2023-05-14T08:52:09;21.30;;;11.60;;
52272;SDS011;38227;50.942;4.016;2023-05-14T08:54:38;24.67;;;12.70;;
52272;SDS011;38227;50.942;4.016;2023-05-14T08:57:08;24.20;;;12.63;;
52272;SDS011;38227;50.942;4.016;2023-05-14T08:59:38;24.87;;;13.02;;
52272;SDS011;38227;50.942;4.016;2023-05-14T09:02:15;23.00;;;13.13;;
52272;SDS011;38227;50.942;4.016;2023-05-14T09:04:45;28.48;;;14.73;;
52272;SDS011;38227;50.942;4.016;2023-05-14T09:07:14;36.70;;;17.67;;
52272;SDS011;38227;50.942;4.016;2023-05-14T09:09:43;25.85;;;13.98;;
52272;SDS011;38227;50.942;4.016;2023-05-14T09:12:14;27.58;;;13.82;;
52272;SDS011;38227;50.942;4.016;2023-05-14T09:14:44;24.37;;;12.48;;
52272;SDS011;38227;50.942;4.016;2023-05-14T09:17:13;19.30;;;10.30;;
52272;SDS011;38227;50.942;4.016;2023-05-14T09:19:41;16.65;;;10.05;;
52272;SDS011;38227;50.942;4.016;2023-05-14T09:22:15;17.70;;;10.15;;
52272;SDS011;38227;50.942;4.016;2023-05-14T09:25:01;16.55;;;9.85;;
52272;SDS011;38227;50.942;4.016;2023-05-14T09:27:35;21.87;;;12.45;;
52272;SDS011;38227;50.942;4.016;2023-05-14T09:30:13;21.58;;;12.50;;
52272;SDS011;38227;50.942;4.016;2023-05-14T09:32:52;20.17;;;11.00;;
52272;SDS011;38227;50.942;4.016;2023-05-14T09:35:32;21.52;;;10.98;;
52272;SDS011;38227;50.942;4.016;2023-05-14T09:38:05;17.08;;;10.48;;
52272;SDS011;38227;50.942;4.016;2023-05-14T09:40:35;17.12;;;8.80;;
52272;SDS011;38227;50.942;4.016;2023-05-14T09:43:07;14.55;;;9.25;;
52272;SDS011;38227;50.942;4.016;2023-05-14T09:45:37;18.48;;;9.55;;
52272;SDS011;38227;50.942;4.016;2023-05-14T09:48:07;14.25;;;8.93;;
52272;SDS011;38227;50.942;4.016;2023-05-14T09:50:44;13.93;;;7.75;;
52272;SDS011;38227;50.942;4.016;2023-05-14T09:53:18;13.30;;;8.95;;
52272;SDS011;38227;50.942;4.016;2023-05-14T09:55:49;16.85;;;8.88;;
52272;SDS011;38227;50.942;4.016;2023-05-14T09:58:19;15.73;;;8.82;;
52272;SDS011;38227;50.942;4.016;2023-05-14T10:00:50;11.38;;;7.45;;
52272;SDS011;38227;50.942;4.016;2023-05-14T10:03:22;10.63;;;6.50;;
52272;SDS011;38227;50.942;4.016;2023-05-14T10:05:52;14.20;;;7.82;;
52272;SDS011;38227;50.942;4.016;2023-05-14T10:08:33;11.45;;;7.50;;
52272;SDS011;38227;50.942;4.016;2023-05-14T10:11:05;10.60;;;7.00;;
52272;SDS011;38227;50.942;4.016;2023-05-14T10:13:40;10.93;;;6.72;;
52272;SDS011;38227;50.942;4.016;2023-05-14T10:16:18;9.10;;;6.07;;
52272;SDS011;38227;50.942;4.016;2023-05-14T10:18:55;9.68;;;6.50;;
52272;SDS011;38227;50.942;4.016;2023-05-14T10:21:26;11.07;;;6.68;;
52272;SDS011;38227;50.942;4.016;2023-05-14T10:23:59;11.32;;;6.40;;
52272;SDS011;38227;50.942;4.016;2023-05-14T10:26:31;10.00;;;6.55;;
52272;SDS011;38227;50.942;4.016;2023-05-14T10:29:05;10.15;;;6.60;;
52272;SDS011;38227;50.942;4.016;2023-05-14T10:31:52;11.05;;;6.97;;
52272;SDS011;38227;50.942;4.016;2023-05-14T10:37:02;12.57;;;7.80;;
52272;SDS011;38227;50.942;4.016;2023-05-14T10:39:41;9.02;;;6.40;;
52272;SDS011;38227;50.942;4.016;2023-05-14T10:42:16;11.38;;;6.65;;
52272;SDS011;38227;50.942;4.016;2023-05-14T10:44:54;10.32;;;6.15;;
52272;SDS011;38227;50.942;4.016;2023-05-14T10:47:26;10.73;;;6.68;;
52272;SDS011;38227;50.942;4.016;2023-05-14T10:49:56;9.15;;;6.43;;
52272;SDS011;38227;50.942;4.016;2023-05-14T10:52:26;13.20;;;7.10;;
52272;SDS011;38227;50.942;4.016;2023-05-14T10:54:58;9.73;;;6.28;;
52272;SDS011;38227;50.942;4.016;2023-05-14T10:57:29;12.13;;;7.35;;
52272;SDS011;38227;50.942;4.016;2023-05-14T11:00:01;15.13;;;9.05;;
52272;SDS011;38227;50.942;4.016;2023-05-14T11:02:36;18.55;;;9.68;;
52272;SDS011;38227;50.942;4.016;2023-05-14T11:07:57;16.52;;;9.30;;
52272;SDS011;38227;50.942;4.016;2023-05-14T11:10:28;13.50;;;8.27;;
52272;SDS011;38227;50.942;4.016;2023-05-14T11:13:05;13.68;;;7.95;;
52272;SDS011;38227;50.942;4.016;2023-05-14T11:15:34;14.18;;;8.18;;
52272;SDS011;38227;50.942;4.016;2023-05-14T11:18:12;21.67;;;11.60;;
52272;SDS011;38227;50.942;4.016;2023-05-14T11:20:56;24.25;;;12.95;;
52272;SDS011;38227;50.942;4.016;2023-05-14T11:23:27;24.17;;;12.67;;
52272;SDS011;38227;50.942;4.016;2023-05-14T11:26:01;23.42;;;11.50;;
52272;SDS011;38227;50.942;4.016;2023-05-14T11:28:33;16.90;;;8.53;;
52272;SDS011;38227;50.942;4.016;2023-05-14T11:31:01;10.55;;;6.62;;
52272;SDS011;38227;50.942;4.016;2023-05-14T11:33:29;10.07;;;6.55;;
52272;SDS011;38227;50.942;4.016;2023-05-14T11:36:09;9.88;;;6.57;;
52272;SDS011;38227;50.942;4.016;2023-05-14T11:38:47;9.13;;;5.80;;
52272;SDS011;38227;50.942;4.016;2023-05-14T11:41:20;7.78;;;5.82;;
52272;SDS011;38227;50.942;4.016;2023-05-14T11:43:52;9.93;;;5.97;;
52272;SDS011;38227;50.942;4.016;2023-05-14T11:46:23;11.20;;;6.32;;
52272;SDS011;38227;50.942;4.016;2023-05-14T11:48:54;10.32;;;6.32;;
52272;SDS011;38227;50.942;4.016;2023-05-14T11:51:22;11.18;;;6.50;;
52272;SDS011;38227;50.942;4.016;2023-05-14T11:53:52;11.45;;;6.65;;
52272;SDS011;38227;50.942;4.016;2023-05-14T11:56:20;12.13;;;6.78;;
52272;SDS011;38227;50.942;4.016;2023-05-14T11:58:54;12.85;;;6.57;;
52272;SDS011;38227;50.942;4.016;2023-05-14T12:01:25;9.75;;;6.20;;
52272;SDS011;38227;50.942;4.016;2023-05-14T12:04:06;9.15;;;6.10;;
52272;SDS011;38227;50.942;4.016;2023-05-14T12:06:34;16.73;;;6.40;;
52272;SDS011;38227;50.942;4.016;2023-05-14T12:09:05;10.32;;;6.37;;
52272;SDS011;38227;50.942;4.016;2023-05-14T12:14:14;10.45;;;5.85;;
52272;SDS011;38227;50.942;4.016;2023-05-14T12:16:46;10.23;;;6.12;;
52272;SDS011;38227;50.942;4.016;2023-05-14T12:19:16;8.02;;;5.50;;
52272;SDS011;38227;50.942;4.016;2023-05-14T12:21:49;9.07;;;5.55;;
52272;SDS011;38227;50.942;4.016;2023-05-14T12:24:19;10.00;;;6.15;;
52272;SDS011;38227;50.942;4.016;2023-05-14T12:26:52;7.90;;;5.62;;
52272;SDS011;38227;50.942;4.016;2023-05-14T12:29:28;8.35;;;5.53;;
52272;SDS011;38227;50.942;4.016;2023-05-14T12:32:05;8.63;;;5.30;;
52272;SDS011;38227;50.942;4.016;2023-05-14T12:34:37;11.60;;;6.87;;
52272;SDS011;38227;50.942;4.016;2023-05-14T12:37:08;9.82;;;6.28;;
52272;SDS011;38227;50.942;4.016;2023-05-14T12:39:37;9.38;;;6.43;;
52272;SDS011;38227;50.942;4.016;2023-05-14T12:42:09;11.52;;;6.93;;
52272;SDS011;38227;50.942;4.016;2023-05-14T12:44:39;10.57;;;6.78;;
52272;SDS011;38227;50.942;4.016;2023-05-14T12:47:15;7.57;;;5.57;;
52272;SDS011;38227;50.942;4.016;2023-05-14T12:49:43;8.63;;;5.87;;
52272;SDS011;38227;50.942;4.016;2023-05-14T12:52:13;9.38;;;6.07;;
52272;SDS011;38227;50.942;4.016;2023-05-14T12:54:44;11.93;;;6.05;;
52272;SDS011;38227;50.942;4.016;2023-05-14T12:57:12;8.68;;;5.43;;
52272;SDS011;38227;50.942;4.016;2023-05-14T12:59:42;12.32;;;5.72;;
52272;SDS011;38227;50.942;4.016;2023-05-14T13:02:15;8.10;;;5.05;;
52272;SDS011;38227;50.942;4.016;2023-05-14T13:04:47;8.00;;;5.28;;
52272;SDS011;38227;50.942;4.016;2023-05-14T13:07:18;8.90;;;5.37;;
52272;SDS011;38227;50.942;4.016;2023-05-14T13:09:47;8.43;;;5.32;;
52272;SDS011;38227;50.942;4.016;2023-05-14T13:12:23;8.95;;;5.47;;
52272;SDS011;38227;50.942;4.016;2023-05-14T13:14:53;8.98;;;5.50;;
52272;SDS011;38227;50.942;4.016;2023-05-14T13:17:24;7.25;;;4.93;;
52272;SDS011;38227;50.942;4.016;2023-05-14T13:19:55;9.32;;;5.12;;
52272;SDS011;38227;50.942;4.016;2023-05-14T13:22:26;7.75;;;5.05;;
52272;SDS011;38227;50.942;4.016;2023-05-14T13:24:56;7.03;;;4.80;;
52272;SDS011;38227;50.942;4.016;2023-05-14T13:27:27;6.10;;;3.97;;
52272;SDS011;38227;50.942;4.016;2023-05-14T13:30:01;6.30;;;4.47;;
52272;SDS011;38227;50.942;4.016;2023-05-14T13:32:31;7.95;;;4.65;;
52272;SDS011;38227;50.942;4.016;2023-05-14T13:35:02;8.77;;;4.80;;
52272;SDS011;38227;50.942;4.016;2023-05-14T13:37:32;5.53;;;4.25;;
52272;SDS011;38227;50.942;4.016;2023-05-14T13:40:01;6.57;;;4.20;;
52272;SDS011;38227;50.942;4.016;2023-05-14T13:42:34;6.30;;;4.10;;
52272;SDS011;38227;50.942;4.016;2023-05-14T13:45:03;5.75;;;4.20;;
52272;SDS011;38227;50.942;4.016;2023-05-14T13:47:34;5.82;;;3.90;;
52272;SDS011;38227;50.942;4.016;2023-05-14T13:50:02;8.25;;;4.75;;
52272;SDS011;38227;50.942;4.016;2023-05-14T13:52:33;8.35;;;4.78;;
52272;SDS011;38227;50.942;4.016;2023-05-14T13:55:06;5.65;;;3.80;;
52272;SDS011;38227;50.942;4.016;2023-05-14T13:57:38;5.28;;;3.75;;
52272;SDS011;38227;50.942;4.016;2023-05-14T14:00:07;6.28;;;3.90;;
52272;SDS011;38227;50.942;4.016;2023-05-14T14:02:39;5.28;;;3.75;;
52272;SDS011;38227;50.942;4.016;2023-05-14T14:05:15;7.18;;;3.78;;
52272;SDS011;38227;50.942;4.016;2023-05-14T14:07:46;5.47;;;3.58;;
52272;SDS011;38227;50.942;4.016;2023-05-14T14:10:16;4.50;;;3.20;;
52272;SDS011;38227;50.942;4.016;2023-05-14T14:12:46;6.22;;;3.67;;
52272;SDS011;38227;50.942;4.016;2023-05-14T14:15:18;6.93;;;3.33;;
52272;SDS011;38227;50.942;4.016;2023-05-14T14:17:48;6.35;;;3.70;;
52272;SDS011;38227;50.942;4.016;2023-05-14T14:20:19;5.65;;;3.60;;
52272;SDS011;38227;50.942;4.016;2023-05-14T14:22:49;4.70;;;3.40;;
52272;SDS011;38227;50.942;4.016;2023-05-14T14:25:26;8.18;;;4.28;;
52272;SDS011;38227;50.942;4.016;2023-05-14T14:27:58;4.05;;;2.90;;
52272;SDS011;38227;50.942;4.016;2023-05-14T14:30:31;7.03;;;3.55;;
52272;SDS011;38227;50.942;4.016;2023-05-14T14:33:01;9.70;;;5.20;;
52272;SDS011;38227;50.942;4.016;2023-05-14T14:35:32;11.20;;;6.43;;
52272;SDS011;38227;50.942;4.016;2023-05-14T14:38:02;12.35;;;6.20;;
52272;SDS011;38227;50.942;4.016;2023-05-14T14:40:33;12.23;;;7.10;;
52272;SDS011;38227;50.942;4.016;2023-05-14T14:43:03;13.60;;;7.18;;
52272;SDS011;38227;50.942;4.016;2023-05-14T14:45:41;11.73;;;7.35;;
52272;SDS011;38227;50.942;4.016;2023-05-14T14:48:28;16.62;;;8.30;;
52272;SDS011;38227;50.942;4.016;2023-05-14T14:50:58;15.13;;;8.57;;
52272;SDS011;38227;50.942;4.016;2023-05-14T14:53:30;15.65;;;8.23;;
52272;SDS011;38227;50.942;4.016;2023-05-14T14:56:02;16.25;;;8.55;;
52272;SDS011;38227;50.942;4.016;2023-05-14T14:58:33;13.45;;;7.43;;
52272;SDS011;38227;50.942;4.016;2023-05-14T15:01:03;14.45;;;8.00;;
52272;SDS011;38227;50.942;4.016;2023-05-14T15:03:34;17.62;;;8.50;;
52272;SDS011;38227;50.942;4.016;2023-05-14T15:06:02;21.65;;;11.23;;
52272;SDS011;38227;50.942;4.016;2023-05-14T15:08:31;27.08;;;12.90;;
52272;SDS011;38227;50.942;4.016;2023-05-14T15:11:00;24.00;;;12.82;;